Time;durP1;ratioP1;P1;durP2;ratioP2;P2;SDS_P1;SDS_P2;PMS_P1;PMS_P2;Temp;Humidity;BMP_temperature;BMP_pressure;BME280_temperature;BME280_humidity;BME280_pressure;Samples;Min_cycle;Max_cycle;Signal;HPM_P1;HPM_P2
2023/12/11 00:00:00;;;;;;;23.77;12.95;;;;;;;;;;1976387;72;21304;-60
2023/12/11 00:02:31;;;;;;;24.60;14.50;;;;;;;;;;1976096;72;21345;-60
2023/12/11 00:05:00;;;;;;;29.30;13.93;;;;;;;;;;1976378;72;21513;-60
2023/12/11 00:07:29;;;;;;;29.02;14.78;;;;;;;;;;1969424;72;21274;-60
2023/12/11 00:09:57;;;;;;;22.52;12.60;;;;;;;;;;1966347;73;21371;-60
2023/12/11 00:12:26;;;;;;;25.17;14.47;;;;;;;;;;1966420;73;21309;-60
2023/12/11 00:14:55;;;;;;;19.15;11.20;;;;;;;;;;1966554;73;21370;-60
2023/12/11 00:17:23;;;;;;;27.90;12.40;;;;;;;;;;1966435;73;21289;-59
2023/12/11 00:19:52;;;;;;;23.67;13.70;;;;;;;;;;1966385;73;21289;-60
2023/12/11 00:22:21;;;;;;;22.37;12.45;;;;;;;;;;1966363;73;21317;-60
2023/12/11 00:24:49;;;;;;;21.90;11.88;;;;;;;;;;1966396;73;21285;-60
2023/12/11 00:27:18;;;;;;;22.70;11.55;;;;;;;;;;1966439;73;21352;-60
2023/12/11 00:29:47;;;;;;;22.90;12.35;;;;;;;;;;1966497;73;21426;-60
2023/12/11 00:32:15;;;;;;;18.17;11.08;;;;;;;;;;1966385;73;21430;-60
2023/12/11 00:34:44;;;;;;;19.30;10.82;;;;;;;;;;1966413;73;21184;-60
2023/12/11 00:37:12;;;;;;;19.27;11.50;;;;;;;;;;1966339;73;21266;-60
2023/12/11 00:39:41;;;;;;;17.00;10.10;;;;;;;;;;1966476;73;21364;-60
2023/12/11 00:42:09;;;;;;;9.28;5.40;;;;;;;;;;1966356;73;21356;-60
2023/12/11 00:44:38;;;;;;;8.98;5.33;;;;;;;;;;1966420;73;21387;-60
2023/12/11 00:47:07;;;;;;;5.00;3.67;;;;;;;;;;1966516;73;21281;-59
2023/12/11 00:49:36;;;;;;;4.92;2.90;;;;;;;;;;1966385;73;21461;-59
2023/12/11 00:52:05;;;;;;;3.05;2.22;;;;;;;;;;1966391;73;21243;-60
2023/12/11 00:54:33;;;;;;;4.10;2.12;;;;;;;;;;1966386;73;21239;-60
2023/12/11 00:57:02;;;;;;;4.65;2.17;;;;;;;;;;1966438;73;21439;-60
2023/12/11 00:59:30;;;;;;;15.25;6.10;;;;;;;;;;1966419;73;21168;-60
2023/12/11 01:01:59;;;;;;;8.33;5.50;;;;;;;;;;1966461;73;21590;-60
2023/12/11 01:04:28;;;;;;;12.50;6.17;;;;;;;;;;1966368;73;21195;-60
2023/12/11 01:06:56;;;;;;;15.23;9.83;;;;;;;;;;1969106;72;21274;-59
2023/12/11 01:09:26;;;;;;;18.30;9.95;;;;;;;;;;1976468;72;21328;-60
2023/12/11 01:11:54;;;;;;;15.00;8.63;;;;;;;;;;1976628;72;21300;-60
2023/12/11 01:14:23;;;;;;;16.12;8.10;;;;;;;;;;1976471;72;21374;-60
2023/12/11 01:16:52;;;;;;;16.12;8.90;;;;;;;;;;1976446;72;21364;-60
2023/12/11 01:19:20;;;;;;;17.10;8.13;;;;;;;;;;1976422;72;21297;-60
2023/12/11 01:21:49;;;;;;;16.75;9.40;;;;;;;;;;1976524;72;21284;-60
2023/12/11 01:24:18;;;;;;;12.13;6.87;;;;;;;;;;1976561;72;21273;-60
2023/12/11 01:26:46;;;;;;;15.05;8.58;;;;;;;;;;1976446;72;21429;-60
2023/12/11 01:29:15;;;;;;;16.67;8.18;;;;;;;;;;1976402;72;21370;-60
2023/12/11 01:31:43;;;;;;;15.80;8.43;;;;;;;;;;1976496;72;21340;-60
2023/12/11 01:34:12;;;;;;;15.88;8.25;;;;;;;;;;1976455;72;21285;-60
2023/12/11 01:36:42;;;;;;;14.45;7.97;;;;;;;;;;1976477;72;21332;-60
2023/12/11 01:39:10;;;;;;;14.45;7.50;;;;;;;;;;1976501;72;21183;-60
2023/12/11 01:41:39;;;;;;;18.10;8.73;;;;;;;;;;1976503;72;21450;-60
2023/12/11 01:44:08;;;;;;;13.65;8.80;;;;;;;;;;1976467;72;21359;-60
2023/12/11 01:46:36;;;;;;;15.35;7.78;;;;;;;;;;1976496;72;21195;-60
2023/12/11 01:49:05;;;;;;;9.58;6.87;;;;;;;;;;1976532;72;21321;-60
2023/12/11 01:51:34;;;;;;;10.45;6.87;;;;;;;;;;1976505;72;21211;-60
2023/12/11 01:54:02;;;;;;;12.13;7.78;;;;;;;;;;1976469;72;21375;-60
2023/12/11 01:56:31;;;;;;;8.50;6.15;;;;;;;;;;1976461;72;21250;-60
2023/12/11 01:58:59;;;;;;;12.33;6.83;;;;;;;;;;1976578;72;21285;-60
2023/12/11 02:01:29;;;;;;;9.60;6.50;;;;;;;;;;1976538;72;21245;-60
2023/12/11 02:03:58;;;;;;;12.60;5.37;;;;;;;;;;1976550;72;21374;-60
2023/12/11 02:06:26;;;;;;;10.80;4.55;;;;;;;;;;1976502;72;21386;-60
2023/12/11 02:08:55;;;;;;;8.13;4.60;;;;;;;;;;1967986;72;21269;-60
2023/12/11 02:11:24;;;;;;;9.00;5.65;;;;;;;;;;1966382;73;21441;-60
2023/12/11 02:13:53;;;;;;;6.00;3.47;;;;;;;;;;1966441;73;21398;-59
2023/12/11 02:16:22;;;;;;;5.55;3.85;;;;;;;;;;1966379;73;21207;-60
2023/12/11 02:18:50;;;;;;;2.10;1.40;;;;;;;;;;1966321;73;21360;-60
2023/12/11 02:21:19;;;;;;;8.35;3.83;;;;;;;;;;1966337;73;21480;-60
2023/12/11 02:23:52;;;;;;;4.33;3.10;;;;;;;;;;1966197;73;21276;-60
2023/12/11 02:26:20;;;;;;;3.80;2.77;;;;;;;;;;1965929;73;21313;-60
2023/12/11 02:28:49;;;;;;;3.02;1.95;;;;;;;;;;1966201;73;21465;-60
2023/12/11 02:31:18;;;;;;;2.15;1.07;;;;;;;;;;1966277;73;21262;-60
2023/12/11 02:33:46;;;;;;;1.65;1.10;;;;;;;;;;1966360;73;21302;-60
2023/12/11 02:36:15;;;;;;;2.50;1.27;;;;;;;;;;1966324;73;21234;-60
2023/12/11 02:38:43;;;;;;;2.45;1.17;;;;;;;;;;1966220;73;21421;-60
2023/12/11 02:41:12;;;;;;;2.58;1.00;;;;;;;;;;1966185;73;21508;-59
2023/12/11 02:43:40;;;;;;;1.20;1.02;;;;;;;;;;1966129;73;21391;-60
2023/12/11 02:46:09;;;;;;;3.62;1.17;;;;;;;;;;1966221;73;21368;-60
2023/12/11 02:48:38;;;;;;;1.30;0.93;;;;;;;;;;1966162;73;21254;-60
2023/12/11 02:51:07;;;;;;;1.45;1.00;;;;;;;;;;1966430;73;21364;-59
2023/12/11 02:53:35;;;;;;;1.92;0.80;;;;;;;;;;1966331;73;21387;-60
2023/12/11 02:56:04;;;;;;;4.33;2.75;;;;;;;;;;1966460;73;21305;-60
2023/12/11 02:58:32;;;;;;;3.90;1.15;;;;;;;;;;1966409;73;21293;-59
2023/12/11 03:01:01;;;;;;;1.47;1.20;;;;;;;;;;1966449;73;21250;-60
2023/12/11 03:03:29;;;;;;;2.90;0.95;;;;;;;;;;1966190;73;21258;-60
2023/12/11 03:05:58;;;;;;;2.55;1.47;;;;;;;;;;1966266;73;21202;-60
2023/12/11 03:08:27;;;;;;;1.47;1.07;;;;;;;;;;1966380;73;21332;-59
2023/12/11 03:10:56;;;;;;;2.45;1.40;;;;;;;;;;1966188;73;21184;-60
2023/12/11 03:13:25;;;;;;;1.37;1.15;;;;;;;;;;1966338;73;21289;-60
2023/12/11 03:15:53;;;;;;;1.12;1.00;;;;;;;;;;1966223;73;21251;-60
2023/12/11 03:18:22;;;;;;;2.00;1.10;;;;;;;;;;1966192;73;21787;-60
2023/12/11 03:20:50;;;;;;;1.00;0.88;;;;;;;;;;1966206;73;21381;-59
2023/12/11 03:23:19;;;;;;;1.50;1.05;;;;;;;;;;1966133;73;21336;-60
2023/12/11 03:25:47;;;;;;;3.30;0.78;;;;;;;;;;1966231;73;21195;-60
2023/12/11 03:28:16;;;;;;;2.00;1.30;;;;;;;;;;1966196;73;21269;-60
2023/12/11 03:30:45;;;;;;;2.58;1.05;;;;;;;;;;1966292;73;21321;-60
2023/12/11 03:33:14;;;;;;;0.88;0.80;;;;;;;;;;1966312;73;21317;-59
2023/12/11 03:35:43;;;;;;;1.35;1.10;;;;;;;;;;1966243;73;21258;-60
2023/12/11 03:38:12;;;;;;;2.70;1.00;;;;;;;;;;1966179;73;21250;-60
2023/12/11 03:40:41;;;;;;;1.32;1.20;;;;;;;;;;1966221;73;21250;-60
2023/12/11 03:43:10;;;;;;;2.05;1.00;;;;;;;;;;1966112;73;21435;-59
2023/12/11 03:45:39;;;;;;;0.78;0.78;;;;;;;;;;1966341;73;21297;-60
2023/12/11 03:48:07;;;;;;;1.95;0.90;;;;;;;;;;1966181;73;21314;-60
2023/12/11 03:50:36;;;;;;;1.42;0.93;;;;;;;;;;1966177;73;21243;-60
2023/12/11 03:53:05;;;;;;;1.90;0.90;;;;;;;;;;1966208;73;21379;-60
2023/12/11 03:55:33;;;;;;;1.75;1.00;;;;;;;;;;1966200;73;21380;-60
2023/12/11 03:58:01;;;;;;;2.45;1.60;;;;;;;;;;1966216;73;21254;-60
2023/12/11 04:00:30;;;;;;;3.77;1.62;;;;;;;;;;1966196;73;21333;-60
2023/12/11 04:02:59;;;;;;;1.60;1.10;;;;;;;;;;1966159;73;21268;-60
2023/12/11 04:05:27;;;;;;;1.37;1.05;;;;;;;;;;1966196;73;21273;-59
2023/12/11 04:07:57;;;;;;;1.12;0.85;;;;;;;;;;1966102;73;21337;-59
2023/12/11 04:10:25;;;;;;;2.02;1.07;;;;;;;;;;1966119;73;21309;-60
2023/12/11 04:12:54;;;;;;;1.20;1.00;;;;;;;;;;1966245;73;21235;-60
2023/12/11 04:15:22;;;;;;;5.28;1.30;;;;;;;;;;1966114;73;21316;-60
2023/12/11 04:17:51;;;;;;;1.30;1.20;;;;;;;;;;1966158;73;21297;-60
2023/12/11 04:20:20;;;;;;;1.70;1.27;;;;;;;;;;1966129;73;21222;-60
2023/12/11 04:22:48;;;;;;;3.25;1.40;;;;;;;;;;1966048;73;21383;-59
2023/12/11 04:25:17;;;;;;;2.05;1.10;;;;;;;;;;1966107;73;21227;-59
2023/12/11 04:27:46;;;;;;;4.55;1.62;;;;;;;;;;1966077;73;21293;-60
2023/12/11 04:30:14;;;;;;;2.58;1.42;;;;;;;;;;1966064;73;21378;-60
2023/12/11 04:32:43;;;;;;;2.80;1.92;;;;;;;;;;1966224;73;21191;-60
2023/12/11 04:35:11;;;;;;;4.87;2.10;;;;;;;;;;1966155;73;21226;-60
2023/12/11 04:37:40;;;;;;;4.00;2.10;;;;;;;;;;1966251;73;21337;-59
2023/12/11 04:40:09;;;;;;;3.83;1.25;;;;;;;;;;1966082;73;21313;-59
2023/12/11 04:42:38;;;;;;;4.05;1.65;;;;;;;;;;1966144;73;21317;-59
2023/12/11 04:45:06;;;;;;;2.92;2.50;;;;;;;;;;1966075;73;21242;-59
2023/12/11 04:47:35;;;;;;;2.40;1.90;;;;;;;;;;1966021;73;21344;-60
2023/12/11 04:50:03;;;;;;;3.42;2.15;;;;;;;;;;1966088;73;21372;-60
2023/12/11 04:52:32;;;;;;;4.85;2.62;;;;;;;;;;1966038;73;21371;-59
2023/12/11 04:55:01;;;;;;;5.60;2.15;;;;;;;;;;1966037;73;21329;-60
2023/12/11 04:57:29;;;;;;;2.37;1.50;;;;;;;;;;1966191;73;21301;-59
2023/12/11 04:59:58;;;;;;;2.42;2.12;;;;;;;;;;1966207;73;21317;-60
2023/12/11 05:02:27;;;;;;;2.58;1.67;;;;;;;;;;1966165;73;21387;-60
2023/12/11 05:04:56;;;;;;;3.40;2.02;;;;;;;;;;1966193;73;21254;-60
2023/12/11 05:07:24;;;;;;;2.80;1.95;;;;;;;;;;1966260;73;21372;-60
2023/12/11 05:09:53;;;;;;;2.65;1.70;;;;;;;;;;1966215;72;21313;-60
2023/12/11 05:12:21;;;;;;;2.52;1.60;;;;;;;;;;1966312;73;21179;-60
2023/12/11 05:14:50;;;;;;;4.25;2.50;;;;;;;;;;1966257;73;21281;-60
2023/12/11 05:17:18;;;;;;;18.60;9.08;;;;;;;;;;1966242;73;21261;-60
2023/12/11 05:19:47;;;;;;;6.85;3.80;;;;;;;;;;1966193;73;21728;-60
2023/12/11 05:22:15;;;;;;;5.17;3.72;;;;;;;;;;1966214;73;21199;-60
2023/12/11 05:24:44;;;;;;;6.65;3.83;;;;;;;;;;1966154;73;21305;-59
2023/12/11 05:27:13;;;;;;;7.72;3.72;;;;;;;;;;1966232;73;21325;-60
2023/12/11 05:29:42;;;;;;;9.70;3.87;;;;;;;;;;1966337;73;21268;-60
2023/12/11 05:32:10;;;;;;;6.30;3.72;;;;;;;;;;1966269;73;21430;-59
2023/12/11 05:34:39;;;;;;;4.87;3.00;;;;;;;;;;1966362;73;21250;-60
2023/12/11 05:37:08;;;;;;;9.25;5.95;;;;;;;;;;1966167;73;21199;-60
2023/12/11 05:39:36;;;;;;;8.63;5.12;;;;;;;;;;1966119;73;21328;-60
2023/12/11 05:42:05;;;;;;;7.37;3.02;;;;;;;;;;1966245;73;21238;-60
2023/12/11 05:44:34;;;;;;;6.00;3.10;;;;;;;;;;1966203;73;21313;-60
2023/12/11 05:47:02;;;;;;;5.12;3.72;;;;;;;;;;1966223;73;21247;-59
2023/12/11 05:49:31;;;;;;;7.00;3.37;;;;;;;;;;1966372;73;21262;-59
2023/12/11 05:52:00;;;;;;;5.80;3.75;;;;;;;;;;1966342;73;21154;-59
2023/12/11 05:54:28;;;;;;;14.23;6.83;;;;;;;;;;1966366;73;21262;-60
2023/12/11 05:56:58;;;;;;;5.67;3.45;;;;;;;;;;1966287;73;21240;-59
2023/12/11 05:59:27;;;;;;;9.88;5.05;;;;;;;;;;1966139;73;21428;-60
2023/12/11 06:01:55;;;;;;;8.25;4.33;;;;;;;;;;1966214;73;21297;-59
2023/12/11 06:04:24;;;;;;;8.83;4.33;;;;;;;;;;1966114;73;21317;-59
2023/12/11 06:06:52;;;;;;;5.78;3.40;;;;;;;;;;1966083;73;21226;-59
2023/12/11 06:09:22;;;;;;;4.28;2.70;;;;;;;;;;1966119;72;21152;-59
2023/12/11 06:11:51;;;;;;;4.10;2.67;;;;;;;;;;1966230;73;21313;-59
2023/12/11 06:14:19;;;;;;;5.75;2.62;;;;;;;;;;1966237;73;21371;-59
2023/12/11 06:16:48;;;;;;;5.30;3.20;;;;;;;;;;1966203;73;21367;-59
2023/12/11 06:19:16;;;;;;;3.52;1.92;;;;;;;;;;1966233;73;21371;-59
2023/12/11 06:21:45;;;;;;;6.75;2.20;;;;;;;;;;1966160;73;21313;-59
2023/12/11 06:24:13;;;;;;;3.80;2.00;;;;;;;;;;1966219;73;21378;-59
2023/12/11 06:26:42;;;;;;;3.08;2.15;;;;;;;;;;1966165;73;21297;-59
2023/12/11 06:29:11;;;;;;;2.55;2.17;;;;;;;;;;1966240;73;21175;-59
2023/12/11 06:31:39;;;;;;;4.92;4.15;;;;;;;;;;1966153;73;21457;-59
2023/12/11 06:34:08;;;;;;;5.95;3.75;;;;;;;;;;1966172;73;21331;-59
2023/12/11 06:36:36;;;;;;;6.12;3.02;;;;;;;;;;1966237;73;21297;-59
2023/12/11 06:39:05;;;;;;;6.95;4.25;;;;;;;;;;1966135;73;21352;-59
2023/12/11 06:41:35;;;;;;;5.03;3.60;;;;;;;;;;1966186;73;21309;-59
2023/12/11 06:44:03;;;;;;;6.67;3.58;;;;;;;;;;1966122;73;21210;-59
2023/12/11 06:46:32;;;;;;;5.85;3.30;;;;;;;;;;1966176;73;21199;-59
2023/12/11 06:49:01;;;;;;;5.22;3.17;;;;;;;;;;1966193;73;21493;-59
2023/12/11 06:51:30;;;;;;;9.15;3.77;;;;;;;;;;1966254;73;21469;-59
2023/12/11 06:53:59;;;;;;;4.58;2.83;;;;;;;;;;1966226;73;21372;-59
2023/12/11 06:56:30;;;;;;;5.87;3.40;;;;;;;;;;1966366;73;21128;-59
2023/12/11 06:58:58;;;;;;;5.67;4.03;;;;;;;;;;1966074;73;21779;-58
2023/12/11 07:01:28;;;;;;;6.83;3.77;;;;;;;;;;1966410;73;21390;-59
2023/12/11 07:03:56;;;;;;;11.73;4.78;;;;;;;;;;1966140;73;21209;-59
2023/12/11 07:06:24;;;;;;;5.00;3.45;;;;;;;;;;1966136;73;21309;-59
2023/12/11 07:08:53;;;;;;;10.80;3.00;;;;;;;;;;1966159;73;21317;-59
2023/12/11 07:11:24;;;;;;;8.78;3.90;;;;;;;;;;1966158;72;21274;-59
2023/12/11 07:13:53;;;;;;;7.42;3.60;;;;;;;;;;1966162;73;21270;-58
2023/12/11 07:16:23;;;;;;;7.58;3.92;;;;;;;;;;1966310;73;21293;-58
2023/12/11 07:18:52;;;;;;;6.10;3.70;;;;;;;;;;1966035;73;21371;-59
2023/12/11 07:21:21;;;;;;;5.60;3.47;;;;;;;;;;1966195;73;21211;-59
2023/12/11 07:23:50;;;;;;;8.30;3.95;;;;;;;;;;1966018;73;21313;-59
2023/12/11 07:26:18;;;;;;;5.97;3.12;;;;;;;;;;1966201;73;21196;-58
2023/12/11 07:28:47;;;;;;;6.20;3.77;;;;;;;;;;1966126;73;21251;-58
2023/12/11 07:31:15;;;;;;;4.97;2.60;;;;;;;;;;1966191;73;21313;-59
2023/12/11 07:33:44;;;;;;;6.85;3.75;;;;;;;;;;1966163;73;21313;-59
2023/12/11 07:36:13;;;;;;;29.95;11.50;;;;;;;;;;1966278;73;21329;-59
2023/12/11 07:38:42;;;;;;;27.42;10.43;;;;;;;;;;1966205;73;21387;-59
2023/12/11 07:41:11;;;;;;;14.07;6.90;;;;;;;;;;1966139;73;21321;-59
2023/12/11 07:43:39;;;;;;;18.70;8.53;;;;;;;;;;1966110;73;21359;-59
2023/12/11 07:46:11;;;;;;;26.42;10.90;;;;;;;;;;1958292;73;21413;-59
2023/12/11 07:48:40;;;;;;;13.05;6.42;;;;;;;;;;1973483;73;21152;-59
2023/12/11 07:51:10;;;;;;;12.50;6.58;;;;;;;;;;1974327;73;21250;-59
2023/12/11 07:53:38;;;;;;;16.20;7.53;;;;;;;;;;1974196;73;21219;-59
2023/12/11 07:56:07;;;;;;;9.23;5.47;;;;;;;;;;1974278;73;21317;-59
2023/12/11 07:58:36;;;;;;;4.80;4.30;;;;;;;;;;1974330;73;21199;-59
2023/12/11 08:01:04;;;;;;;8.55;3.50;;;;;;;;;;1974314;73;21250;-59
2023/12/11 08:03:33;;;;;;;7.17;4.12;;;;;;;;;;1972654;73;21230;-59
2023/12/11 08:06:01;;;;;;;5.47;4.42;;;;;;;;;;1962123;73;21356;-59
2023/12/11 08:08:30;;;;;;;7.87;4.92;;;;;;;;;;1959789;73;21282;-59
2023/12/11 08:10:59;;;;;;;6.97;4.45;;;;;;;;;;1960505;73;21321;-59
2023/12/11 08:13:27;;;;;;;6.90;3.92;;;;;;;;;;1962150;73;21227;-59
2023/12/11 08:15:56;;;;;;;7.75;4.00;;;;;;;;;;1960720;73;21381;-59
2023/12/11 08:18:26;;;;;;;6.12;4.08;;;;;;;;;;1959837;73;21371;-59
2023/12/11 08:20:55;;;;;;;8.68;4.28;;;;;;;;;;1957099;73;21406;-59
2023/12/11 08:23:24;;;;;;;11.15;4.75;;;;;;;;;;1948209;73;21309;-60
2023/12/11 08:25:53;;;;;;;10.70;5.85;;;;;;;;;;1966725;73;21298;-61
2023/12/11 08:28:21;;;;;;;6.97;4.97;;;;;;;;;;1974313;73;21066;-58
2023/12/11 08:30:50;;;;;;;7.72;5.22;;;;;;;;;;1974241;73;21195;-63
2023/12/11 08:33:18;;;;;;;6.37;3.60;;;;;;;;;;1974340;73;21320;-64
2023/12/11 08:35:47;;;;;;;6.62;3.90;;;;;;;;;;1974369;73;21190;-63
2023/12/11 08:38:16;;;;;;;3.65;2.83;;;;;;;;;;1974370;73;21164;-64
2023/12/11 08:40:45;;;;;;;10.65;4.00;;;;;;;;;;1974369;73;21383;-64
2023/12/11 08:43:13;;;;;;;6.58;3.50;;;;;;;;;;1974295;73;21179;-64
2023/12/11 08:45:42;;;;;;;7.20;3.65;;;;;;;;;;1974343;72;21653;-63
2023/12/11 08:48:11;;;;;;;7.40;3.85;;;;;;;;;;1974452;73;21101;-63
2023/12/11 08:50:40;;;;;;;5.87;4.10;;;;;;;;;;1973343;73;21168;-63
2023/12/11 08:53:08;;;;;;;6.30;4.30;;;;;;;;;;1974364;73;21168;-63
2023/12/11 08:55:37;;;;;;;4.80;3.80;;;;;;;;;;1974307;73;21216;-64
2023/12/11 08:58:05;;;;;;;14.50;7.75;;;;;;;;;;1973717;73;21442;-63
2023/12/11 09:00:34;;;;;;;8.18;5.45;;;;;;;;;;1973185;73;21058;-60
2023/12/11 09:03:03;;;;;;;22.27;12.53;;;;;;;;;;1973916;73;21278;-63
2023/12/11 09:05:32;;;;;;;7.28;4.78;;;;;;;;;;1973833;73;21352;-68
2023/12/11 09:08:01;;;;;;;6.25;4.00;;;;;;;;;;1973566;73;21258;-70
2023/12/11 09:10:30;;;;;;;5.28;3.52;;;;;;;;;;1973671;73;21191;-62
2023/12/11 09:12:59;;;;;;;5.37;3.87;;;;;;;;;;1973658;73;21239;-65
2023/12/11 09:15:28;;;;;;;5.80;4.60;;;;;;;;;;1973672;73;21088;-63
2023/12/11 09:17:57;;;;;;;11.57;5.08;;;;;;;;;;1973673;73;21235;-62
2023/12/11 09:20:25;;;;;;;8.38;4.92;;;;;;;;;;1973604;73;21245;-72
2023/12/11 09:22:54;;;;;;;7.05;4.78;;;;;;;;;;1973689;73;21262;-65
2023/12/11 09:25:23;;;;;;;11.55;5.03;;;;;;;;;;1973660;73;21211;-63
2023/12/11 09:27:51;;;;;;;7.05;4.90;;;;;;;;;;1973524;73;21370;-65
2023/12/11 09:30:20;;;;;;;6.70;4.12;;;;;;;;;;1969365;73;21253;-65
2023/12/11 09:32:48;;;;;;;12.53;5.25;;;;;;;;;;1953293;73;21456;-63
2023/12/11 09:35:17;;;;;;;7.33;4.53;;;;;;;;;;1953540;73;21308;-62
2023/12/11 09:37:46;;;;;;;7.40;4.92;;;;;;;;;;1949407;73;21335;-62
2023/12/11 09:40:15;;;;;;;6.28;4.60;;;;;;;;;;1953868;73;21197;-58
2023/12/11 09:42:45;;;;;;;4.95;3.33;;;;;;;;;;1953903;73;21339;-63
2023/12/11 09:45:15;;;;;;;8.28;6.53;;;;;;;;;;1956011;73;21317;-62
2023/12/11 09:47:45;;;;;;;8.00;6.05;;;;;;;;;;1943058;74;21308;-61
2023/12/11 09:50:14;;;;;;;4.83;3.98;;;;;;;;;;1946147;73;21455;-62
2023/12/11 09:52:42;;;;;;;6.40;3.40;;;;;;;;;;1961524;73;21360;-62
2023/12/11 09:55:11;;;;;;;4.35;3.00;;;;;;;;;;1955901;73;21622;-62
2023/12/11 09:57:42;;;;;;;12.65;3.62;;;;;;;;;;1959631;73;21304;-61
2023/12/11 10:00:15;;;;;;;7.42;3.70;;;;;;;;;;1969822;73;21168;-62
2023/12/11 10:02:42;;;;;;;8.88;3.55;;;;;;;;;;1972003;73;21209;-62
2023/12/11 10:05:11;;;;;;;6.50;4.35;;;;;;;;;;1973565;73;21282;-62
2023/12/11 10:07:43;;;;;;;13.18;4.60;;;;;;;;;;1973646;73;21250;-62
2023/12/11 10:10:30;;;;;;;16.10;8.18;;;;;;;;;;1973679;73;21120;-62
2023/12/11 10:12:58;;;;;;;24.67;10.30;;;;;;;;;;1957494;73;21321;-61
2023/12/11 10:15:28;;;;;;;6.83;4.42;;;;;;;;;;1965254;73;21371;-63
2023/12/11 10:18:02;;;;;;;29.98;16.37;;;;;;;;;;1973499;73;21357;-62
2023/12/11 10:20:31;;;;;;;18.85;11.55;;;;;;;;;;1974552;73;21813;-62
2023/12/11 10:23:04;;;;;;;13.08;7.50;;;;;;;;;;1968403;73;21109;-62
2023/12/11 10:25:56;;;;;;;5.30;3.80;;;;;;;;;;1912023;75;21373;-63
2023/12/11 10:28:25;;;;;;;9.13;5.12;;;;;;;;;;1899505;75;21497;-62
2023/12/11 10:30:55;;;;;;;9.50;5.28;;;;;;;;;;1896333;75;21256;-61
2023/12/11 10:33:24;;;;;;;6.70;4.65;;;;;;;;;;1896656;75;21377;-62
2023/12/11 10:35:53;;;;;;;8.28;5.10;;;;;;;;;;1894555;75;21383;-60
2023/12/11 10:38:25;;;;;;;7.53;3.70;;;;;;;;;;1895922;76;21725;-63
2023/12/11 10:40:55;;;;;;;8.48;4.67;;;;;;;;;;1895714;75;21336;-62
2023/12/11 10:43:24;;;;;;;5.78;3.90;;;;;;;;;;1895691;76;21618;-62
2023/12/11 10:45:53;;;;;;;6.53;4.17;;;;;;;;;;1895877;76;21506;-62
2023/12/11 10:48:21;;;;;;;13.58;6.22;;;;;;;;;;1896031;74;21335;-57
2023/12/11 10:50:50;;;;;;;6.37;3.55;;;;;;;;;;1895641;74;21281;-66
2023/12/11 10:53:19;;;;;;;9.35;3.45;;;;;;;;;;1895868;76;21265;-63
2023/12/11 10:55:49;;;;;;;5.40;3.83;;;;;;;;;;1895856;76;21585;-61
2023/12/11 10:58:18;;;;;;;3.90;2.55;;;;;;;;;;1895661;76;21447;-68
2023/12/11 11:00:47;;;;;;;3.50;2.60;;;;;;;;;;1895824;74;21344;-69
2023/12/11 11:03:16;;;;;;;3.75;2.87;;;;;;;;;;1895823;76;21324;-69
2023/12/11 11:05:45;;;;;;;5.42;3.40;;;;;;;;;;1895606;75;21272;-69
2023/12/11 11:08:17;;;;;;;8.63;4.12;;;;;;;;;;1895782;76;21367;-68
2023/12/11 11:10:59;;;;;;;7.42;4.78;;;;;;;;;;1895877;76;21387;-66
2023/12/11 11:13:30;;;;;;;19.60;7.97;;;;;;;;;;1895532;76;21259;-68
2023/12/11 11:15:58;;;;;;;20.48;9.03;;;;;;;;;;1896000;75;21331;-57
2023/12/11 11:18:27;;;;;;;16.10;6.65;;;;;;;;;;1895825;75;21346;-48
2023/12/11 11:21:10;;;;;;;7.25;3.50;;;;;;;;;;1895807;75;22013;-56
2023/12/11 11:23:42;;;;;;;4.47;2.75;;;;;;;;;;1895712;74;21252;-54
2023/12/11 11:26:22;;;;;;;7.70;3.58;;;;;;;;;;1893041;75;21303;-58
2023/12/11 11:28:51;;;;;;;4.83;2.72;;;;;;;;;;1893534;74;21340;-51
2023/12/11 11:31:19;;;;;;;16.65;5.87;;;;;;;;;;1895318;76;21383;-57
2023/12/11 11:33:49;;;;;;;27.90;12.85;;;;;;;;;;1895386;76;21469;-57
2023/12/11 11:47:35;;;;;;;10.18;6.12;;;11.10;99.90;;;;;;1958124;73;26090;-48
2023/12/11 11:50:07;;;;;;;10.53;4.95;;;11.10;99.90;;;;;;1917352;74;21342;-51
2023/12/11 11:52:38;;;;;;;9.83;5.05;;;11.10;99.90;;;;;;1917581;75;21268;-54
2023/12/11 11:55:15;;;;;;;25.90;11.08;;;11.10;99.90;;;;;;1881030;76;21380;-56
2023/12/11 11:57:44;;;;;;;36.58;14.95;;;11.00;99.90;;;;;;1878189;76;21248;-51
2023/12/11 12:00:35;;;;;;;14.53;8.15;;;11.00;99.90;;;;;;1958147;73;26710;-55
2023/12/11 12:03:04;;;;;;;12.20;5.45;;;11.00;99.90;;;;;;1916528;75;21351;-48
2023/12/11 12:05:33;;;;;;;6.95;3.90;;;11.00;99.90;;;;;;1891398;75;21388;-55
2023/12/11 12:08:04;;;;;;;12.60;7.80;;;11.00;99.90;;;;;;1884480;76;21849;-50
2023/12/11 12:10:34;;;;;;;12.47;6.12;;;11.00;99.90;;;;;;1884485;76;21309;-55
2023/12/11 12:13:04;;;;;;;7.55;4.05;;;11.00;99.90;;;;;;1884075;76;21456;-48
2023/12/11 12:15:35;;;;;;;17.23;6.95;;;11.00;99.90;;;;;;1884371;76;21383;-49
2023/12/11 12:18:08;;;;;;;9.58;6.20;;;11.00;99.90;;;;;;1883144;76;21371;-49
2023/12/11 12:20:37;;;;;;;12.78;7.22;;;11.00;99.90;;;;;;1884175;75;21390;-48
2023/12/11 12:23:07;;;;;;;8.63;5.83;;;11.00;99.90;;;;;;1884432;75;21665;-52
2023/12/11 12:25:40;;;;;;;12.20;6.05;;;11.00;99.90;;;;;;1884466;75;21330;-49
2023/12/11 12:28:12;;;;;;;12.37;8.07;;;11.10;99.90;;;;;;1884515;76;21323;-50
2023/12/11 12:30:41;;;;;;;14.40;8.90;;;11.00;99.90;;;;;;1883450;76;21306;-49
2023/12/11 12:33:12;;;;;;;14.78;7.87;;;11.00;99.90;;;;;;1884672;76;21829;-47
2023/12/11 12:35:44;;;;;;;15.28;8.10;;;11.00;99.90;;;;;;1884230;75;21379;-47
2023/12/11 12:38:14;;;;;;;16.55;9.28;;;11.10;99.90;;;;;;1884581;75;21320;-50
2023/12/11 12:40:43;;;;;;;18.70;9.10;;;11.00;99.90;;;;;;1884446;75;21388;-49
2023/12/11 12:43:13;;;;;;;17.57;7.75;;;11.00;99.90;;;;;;1884239;76;21413;-51
2023/12/11 12:45:44;;;;;;;16.10;9.03;;;11.00;99.90;;;;;;1884429;75;21732;-46
